AFL1125 URSS-UUEE
Flight info
| Callsign | AFL1125 |
|---|---|
| Flight time | N/A |
| Altitude | 33000 |
| Route | IRGID1S/24 IRGID A944 BEMES R227 KZ DCT MOMER/K0826F320 DCT GOLMA/K0830F340 N50 OLOPI OLOPI3W |
| Aircraft | A321/M-SDE3FGHIRWY/LB1 |
Departure
| Time | N/A |
|---|---|
| Airport | Sochi International Airport (URSS) |
Arrival
| Time | 2026-05-04 20:46 |
|---|---|
| Airport | Sheremetyevo International Airport (UUEE) |
| Time | Latitude | Longitude | Altitude | Speed | Heading |
|---|---|---|---|---|---|
| 2026-05-04 20:22 | 55.01943 | 38.06484 | 22713 ft | 367 kts | 312° |
| 2026-05-04 20:22 | 55.03706 | 38.03297 | 22331 ft | 364 kts | 312° |
| 2026-05-04 20:22 | 55.05457 | 38.00134 | 21952 ft | 362 kts | 312° |
| 2026-05-04 20:22 | 55.07202 | 37.96983 | 21577 ft | 360 kts | 312° |
| 2026-05-04 20:23 | 55.08933 | 37.93851 | 21204 ft | 358 kts | 312° |
| 2026-05-04 20:23 | 55.10653 | 37.90729 | 20834 ft | 356 kts | 312° |
| 2026-05-04 20:23 | 55.12362 | 37.87620 | 20573 ft | 354 kts | 312° |
| 2026-05-04 20:23 | 55.14067 | 37.84523 | 20305 ft | 353 kts | 312° |
| 2026-05-04 20:24 | 55.15765 | 37.81446 | 20021 ft | 351 kts | 312° |
| 2026-05-04 20:24 | 55.17591 | 37.78632 | 19863 ft | 351 kts | 322° |
| 2026-05-04 20:24 | 55.19550 | 37.76168 | 19883 ft | 351 kts | 322° |
| 2026-05-04 20:24 | 55.21531 | 37.73658 | 19886 ft | 351 kts | 322° |
| 2026-05-04 20:25 | 55.23503 | 37.71140 | 19887 ft | 351 kts | 322° |
| 2026-05-04 20:25 | 55.25464 | 37.68628 | 19880 ft | 344 kts | 322° |
| 2026-05-04 20:25 | 55.27350 | 37.66215 | 19879 ft | 329 kts | 321° |
| 2026-05-04 20:25 | 55.29194 | 37.63858 | 19665 ft | 326 kts | 321° |
| 2026-05-04 20:26 | 55.31021 | 37.61521 | 19423 ft | 324 kts | 322° |
| 2026-05-04 20:26 | 55.32837 | 37.59193 | 19195 ft | 323 kts | 322° |
| 2026-05-04 20:26 | 55.34618 | 37.56906 | 18963 ft | 321 kts | 321° |
| 2026-05-04 20:26 | 55.36416 | 37.54591 | 18733 ft | 320 kts | 321° |
| 2026-05-04 20:27 | 55.38209 | 37.52280 | 18506 ft | 319 kts | 321° |
| 2026-05-04 20:27 | 55.39999 | 37.49970 | 18271 ft | 318 kts | 321° |
| 2026-05-04 20:27 | 55.41776 | 37.47673 | 18040 ft | 317 kts | 321° |
| 2026-05-04 20:27 | 55.43549 | 37.45379 | 17813 ft | 316 kts | 321° |
| 2026-05-04 20:28 | 55.45316 | 37.43094 | 17586 ft | 314 kts | 321° |
| 2026-05-04 20:28 | 55.47076 | 37.40817 | 17361 ft | 314 kts | 321° |
| 2026-05-04 20:28 | 55.48809 | 37.38582 | 17132 ft | 313 kts | 323° |
| 2026-05-04 20:28 | 55.50731 | 37.36782 | 16905 ft | 314 kts | 337° |
| 2026-05-04 20:29 | 55.52858 | 37.35843 | 16581 ft | 317 kts | 351° |
| 2026-05-04 20:29 | 55.55067 | 37.35723 | 16216 ft | 317 kts | 357° |
| 2026-05-04 20:29 | 55.57270 | 37.35716 | 15860 ft | 316 kts | 356° |
| 2026-05-04 20:29 | 55.59460 | 37.35702 | 15506 ft | 314 kts | 357° |
| 2026-05-04 20:30 | 55.61639 | 37.35684 | 15152 ft | 312 kts | 356° |
| 2026-05-04 20:30 | 55.63805 | 37.35660 | 14804 ft | 311 kts | 356° |
| 2026-05-04 20:30 | 55.65963 | 37.35633 | 14454 ft | 309 kts | 356° |
| 2026-05-04 20:30 | 55.68080 | 37.35603 | 14112 ft | 308 kts | 356° |
| 2026-05-04 20:31 | 55.70213 | 37.35577 | 13767 ft | 306 kts | 356° |
| 2026-05-04 20:31 | 55.72337 | 37.35550 | 13427 ft | 305 kts | 356° |
| 2026-05-04 20:31 | 55.74210 | 37.35479 | 13145 ft | 303 kts | 355° |
| 2026-05-04 20:31 | 55.75676 | 37.35356 | 12936 ft | 302 kts | 354° |
| 2026-05-04 20:32 | 55.77770 | 37.35123 | 12628 ft | 300 kts | 353° |
| 2026-05-04 20:32 | 55.79850 | 37.34869 | 12324 ft | 299 kts | 353° |
| 2026-05-04 20:32 | 55.81922 | 37.34614 | 12020 ft | 298 kts | 353° |
| 2026-05-04 20:32 | 55.83989 | 37.34389 | 11694 ft | 297 kts | 355° |
| 2026-05-04 20:33 | 55.86024 | 37.34286 | 11334 ft | 296 kts | 356° |
| 2026-05-04 20:33 | 55.88079 | 37.34249 | 10981 ft | 295 kts | 356° |
| 2026-05-04 20:33 | 55.90125 | 37.34238 | 10625 ft | 294 kts | 356° |
| 2026-05-04 20:33 | 55.92166 | 37.34229 | 10273 ft | 293 kts | 356° |
| 2026-05-04 20:34 | 55.94198 | 37.34210 | 9922 ft | 292 kts | 356° |
| 2026-05-04 20:34 | 55.96224 | 37.34185 | 9690 ft | 291 kts | 356° |
| 2026-05-04 20:34 | 55.98243 | 37.34152 | 9359 ft | 289 kts | 356° |
| 2026-05-04 20:34 | 56.00235 | 37.34117 | 9131 ft | 280 kts | 355° |
| 2026-05-04 20:35 | 56.02114 | 37.34087 | 8999 ft | 267 kts | 355° |
| 2026-05-04 20:35 | 56.03924 | 37.34064 | 8867 ft | 254 kts | 355° |
| 2026-05-04 20:35 | 56.05651 | 37.34035 | 8744 ft | 242 kts | 355° |
| 2026-05-04 20:35 | 56.07303 | 37.34000 | 8583 ft | 234 kts | 354° |
| 2026-05-04 20:36 | 56.08907 | 37.33962 | 8309 ft | 228 kts | 354° |
| 2026-05-04 20:36 | 56.10478 | 37.33925 | 8063 ft | 221 kts | 354° |
| 2026-05-04 20:36 | 56.11974 | 37.33893 | 7920 ft | 211 kts | 354° |
| 2026-05-04 20:36 | 56.13424 | 37.33915 | 7648 ft | 209 kts | 2° |
| 2026-05-04 20:37 | 56.14823 | 37.34687 | 7332 ft | 214 kts | 24° |
| 2026-05-04 20:37 | 56.15986 | 37.36334 | 7023 ft | 220 kts | 46° |
| 2026-05-04 20:37 | 56.16755 | 37.38726 | 6692 ft | 224 kts | 71° |
| 2026-05-04 20:37 | 56.17158 | 37.41428 | 6436 ft | 224 kts | 74° |
| 2026-05-04 20:38 | 56.17558 | 37.44127 | 6203 ft | 223 kts | 73° |
| 2026-05-04 20:38 | 56.17964 | 37.46829 | 5986 ft | 231 kts | 73° |
| 2026-05-04 20:38 | 56.18417 | 37.49805 | 5737 ft | 258 kts | 73° |
| 2026-05-04 20:38 | 56.18891 | 37.52929 | 5444 ft | 260 kts | 74° |
| 2026-05-04 20:39 | 56.19196 | 37.56108 | 5177 ft | 259 kts | 91° |
| 2026-05-04 20:39 | 56.18878 | 37.59256 | 4933 ft | 256 kts | 114° |
| 2026-05-04 20:39 | 56.17995 | 37.61924 | 4847 ft | 251 kts | 134° |
| 2026-05-04 20:39 | 56.16791 | 37.64167 | 4720 ft | 249 kts | 138° |
| 2026-05-04 20:40 | 56.15578 | 37.66383 | 4597 ft | 248 kts | 138° |
| 2026-05-04 20:40 | 56.14368 | 37.68593 | 4478 ft | 248 kts | 138° |
| 2026-05-04 20:40 | 56.13162 | 37.70794 | 4329 ft | 247 kts | 138° |
| 2026-05-04 20:40 | 56.11943 | 37.73024 | 4240 ft | 253 kts | 138° |
| 2026-05-04 20:41 | 56.10630 | 37.75379 | 4115 ft | 279 kts | 142° |
| 2026-05-04 20:41 | 56.08944 | 37.76975 | 3982 ft | 274 kts | 174° |
| 2026-05-04 20:41 | 56.07124 | 37.76724 | 3775 ft | 266 kts | 199° |
| 2026-05-04 20:41 | 56.05357 | 37.75728 | 3546 ft | 265 kts | 201° |
| 2026-05-04 20:42 | 56.03613 | 37.74686 | 3331 ft | 264 kts | 202° |
| 2026-05-04 20:42 | 56.02076 | 37.73065 | 3115 ft | 253 kts | 230° |
| 2026-05-04 20:42 | 56.01305 | 37.70349 | 2926 ft | 242 kts | 251° |
| 2026-05-04 20:42 | 56.00853 | 37.67517 | 2740 ft | 233 kts | 254° |
| 2026-05-04 20:43 | 56.00474 | 37.64760 | 2589 ft | 226 kts | 255° |
| 2026-05-04 20:43 | 56.00131 | 37.62008 | 2506 ft | 227 kts | 256° |
| 2026-05-04 20:43 | 55.99768 | 37.59285 | 2321 ft | 218 kts | 254° |
| 2026-05-04 20:43 | 55.99400 | 37.56739 | 2051 ft | 212 kts | 253° |
| 2026-05-04 20:44 | 55.99033 | 37.54257 | 1780 ft | 199 kts | 254° |
| 2026-05-04 20:44 | 55.98696 | 37.51977 | 1527 ft | 181 kts | 253° |
| 2026-05-04 20:44 | 55.98386 | 37.49885 | 1296 ft | 169 kts | 253° |
| 2026-05-04 20:44 | 55.98090 | 37.47896 | 1078 ft | 164 kts | 253° |
| 2026-05-04 20:45 | 55.97801 | 37.45949 | 852 ft | 162 kts | 253° |
| 2026-05-04 20:45 | 55.97514 | 37.44018 | 655 ft | 158 kts | 254° |
| 2026-05-04 20:45 | 55.97257 | 37.42297 | 647 ft | 122 kts | 256° |
| 2026-05-04 20:45 | 55.97090 | 37.41142 | 639 ft | 71 kts | 255° |
| 2026-05-04 20:46 | 55.97006 | 37.40586 | 639 ft | 23 kts | 254° |
| 2026-05-04 20:46 | 55.96968 | 37.40343 | 640 ft | 27 kts | 255° |
| 2026-05-04 20:46 | 55.96969 | 37.40070 | 641 ft | 20 kts | 322° |
| 2026-05-04 20:46 | 55.97087 | 37.39996 | 647 ft | 17 kts | 345° |
| 2026-05-04 20:47 | 55.97158 | 37.39962 | 641 ft | 10 kts | 345° |
| 2026-05-04 20:47 | 55.97230 | 37.39927 | 647 ft | 11 kts | 345° |
| 2026-05-04 20:47 | 55.97297 | 37.39895 | 638 ft | 10 kts | 346° |
| 2026-05-04 20:47 | 55.97388 | 37.39853 | 645 ft | 16 kts | 345° |
| 2026-05-04 20:48 | 55.97469 | 37.39924 | 639 ft | 14 kts | 70° |
| 2026-05-04 20:48 | 55.97496 | 37.40082 | 642 ft | 13 kts | 75° |
| 2026-05-04 20:48 | 55.97519 | 37.40227 | 646 ft | 12 kts | 75° |
| 2026-05-04 20:48 | 55.97547 | 37.40413 | 648 ft | 19 kts | 75° |
| 2026-05-04 20:49 | 55.97579 | 37.40637 | 643 ft | 18 kts | 75° |
| 2026-05-04 20:49 | 55.97609 | 37.40833 | 644 ft | 15 kts | 76° |
| 2026-05-04 20:49 | 55.97641 | 37.40935 | 645 ft | 5 kts | 0° |
| 2026-05-04 20:49 | 55.97690 | 37.40921 | 642 ft | 11 kts | 348° |
| 2026-05-04 20:50 | 55.97762 | 37.40889 | 647 ft | 8 kts | 345° |
| 2026-05-04 20:50 | 55.97806 | 37.40892 | 644 ft | 5 kts | 38° |
| 2026-05-04 20:50 | 55.97823 | 37.40951 | 639 ft | 7 kts | 70° |
| 2026-05-04 20:50 | 55.97828 | 37.40989 | 639 ft | 0 kts | 75° |